Iowa Falls Municipal Airport


Codes: KIFA/IFA
Name: Iowa Falls Municipal Airport
City: Iowa Falls
Country: United States
Elevation: 1137 ft.
Website:

Photos at Iowa Falls Municipal Airport


   Photos courtesy of SpottingLog. You can add your own sightings and photos by signing up for a free trial today.



No photos found.

Weather at Iowa Falls Municipal Airport


Time (UTC)DescriptionTempratureWindCloud coverageVisibilityPressureHumidity
21-Jun-2024 12:00Light Rain22°C7 mph, S100%10000m1022hPa94%
21-Jun-2024 15:00Moderate Rain23°C11 mph, S78%10000m1021hPa89%
21-Jun-2024 18:00Light Rain26°C13 mph, SW45%10000m1019hPa76%
21-Jun-2024 21:00Light Rain28°C13 mph, SW20%10000m1016hPa69%
22-Jun-2024 00:00Light Rain27°C11 mph, S17%10000m1015hPa82%
22-Jun-2024 03:00Light Rain23°C9 mph, S16%10000m1014hPa95%
22-Jun-2024 06:00Light Rain22°C11 mph, S35%10000m1013hPa95%
22-Jun-2024 09:00Moderate Rain22°C11 mph, S99%10000m1011hPa95%
22-Jun-2024 12:00Light Rain21°C11 mph, SW100%10000m1011hPa96%
22-Jun-2024 15:00Moderate Rain21°C13 mph, S100%6490m1009hPa96%
22-Jun-2024 18:00Light Rain24°C9 mph, SW100%10000m1009hPa88%
22-Jun-2024 21:00Light Rain25°C7 mph, NW98%10000m1009hPa83%
23-Jun-2024 00:00Light Rain25°C7 mph, NW96%10000m1008hPa83%
23-Jun-2024 03:00Broken Clouds21°C9 mph, N51%10000m1009hPa94%
23-Jun-2024 06:00Scattered Clouds18°C7 mph, N27%10000m1011hPa97%
23-Jun-2024 09:00Clear Sky17°C7 mph, N5%10000m1011hPa97%
23-Jun-2024 12:00Clear Sky18°C4 mph, N2%10000m1012hPa94%
23-Jun-2024 15:00Clear Sky22°C4 mph, N0%10000m1013hPa75%
23-Jun-2024 18:00Clear Sky26°C2 mph, SW0%10000m1012hPa63%
23-Jun-2024 21:00Clear Sky28°C4 mph, SW0%10000m1011hPa60%
24-Jun-2024 00:00Clear Sky26°C7 mph, SW0%10000m1010hPa74%
24-Jun-2024 03:00Clear Sky22°C7 mph, S0%10000m1010hPa84%
24-Jun-2024 06:00Clear Sky21°C7 mph, S0%10000m1010hPa88%
24-Jun-2024 09:00Scattered Clouds20°C7 mph, S35%10000m1009hPa95%
24-Jun-2024 12:00Few Clouds21°C9 mph, S24%10000m1008hPa91%
24-Jun-2024 15:00Clear Sky26°C16 mph, S8%10000m1007hPa80%
24-Jun-2024 18:00Clear Sky30°C13 mph, S4%10000m1006hPa68%
24-Jun-2024 21:00Clear Sky31°C16 mph, S0%10000m1004hPa70%
25-Jun-2024 00:00Clear Sky29°C16 mph, S1%10000m1003hPa80%
25-Jun-2024 03:00Clear Sky27°C13 mph, S0%10000m1003hPa88%
25-Jun-2024 06:00Clear Sky26°C16 mph, SW0%10000m1002hPa83%
25-Jun-2024 09:00Clear Sky25°C13 mph, SW0%10000m1002hPa78%
25-Jun-2024 12:00Scattered Clouds24°C16 mph, SW50%10000m1001hPa82%
25-Jun-2024 15:00Broken Clouds28°C16 mph, SW73%10000m1002hPa75%
25-Jun-2024 18:00Scattered Clouds30°C18 mph, W42%10000m1002hPa67%
25-Jun-2024 21:00Few Clouds30°C18 mph, NW24%10000m1002hPa74%
26-Jun-2024 00:00Scattered Clouds25°C18 mph, NW25%10000m1005hPa73%
26-Jun-2024 03:00Clear Sky20°C11 mph, N0%10000m1008hPa73%
26-Jun-2024 06:00Clear Sky18°C9 mph, NW0%10000m1009hPa82%
26-Jun-2024 09:00Clear Sky17°C13 mph, NW0%10000m1010hPa84%